Terminal Aerodrome Forecast
Issued by NWS

Home | Current Version | Previous Version | Text Only | Print | Product List | Glossary On
Versions: 1 2 3 4 5 6 7 8 9 10 11 12 13 14 15 16 17 18
434
FTUS43 KLSX 242320
TAFUIN
TAF
KUIN 242320Z 2500/2524 15012G18KT P6SM FEW250
     FM250100 15008KT P6SM FEW250
     FM251700 15015G25KT P6SM BKN200=

USA.gov is the U.S. government's official web portal to all federal, state and local government web resources and services.